Philippe A — CNA5228 — position and weather

sailwx.info

Track history (hours):
 
Tides and Currents Weather Stations Pressure Air Temp Water Temp Dewpoint Dewpoint Depression Visibility Wind Speed Wind Dir Waves Ship Positions

Philippe A

Last reported at 2018-Mar-22 11:36 UTC. Time now 2018-Apr-22 18:13 UTC.
Position N 38°59' E 002°42'.
Warning: this ship's position is 31 days out of date.

Length 133 m; draft 8.2 m.

Type: Ship (hazmat cat A). MMSI: 242640300.

Date/timePositionNaut miles runAvg speedWind from/ knotsBaromVisibWave heightAir tempDewpointWater temp
2018-Mar-22 11:36N 38°59' E 002°42'113.2
2018-Mar-22 11:30N 38°59' E 002°40'13612.7
2018-Mar-22 00:50N 39°25' W 000°12'412.6
2018-Mar-22 00:30N 39°25' W 000°17'2 4.2
2018-Mar-21 23:59N 39°27' W 000°19'0 0.0
2018-Mar-21 23:29N 39°27' W 000°19'0 0.0
2018-Mar-21 22:59N 39°27' W 000°19'0 0.0
2018-Mar-21 22:29N 39°27' W 000°19'0 0.0
2018-Mar-21 21:59N 39°27' W 000°19'0 0.0
2018-Mar-21 21:29N 39°27' W 000°19'0 0.0
2018-Mar-21 20:56N 39°27' W 000°19'0 0.0
2018-Mar-21 20:29N 39°27' W 000°19'0 0.0
2018-Mar-21 19:59N 39°27' W 000°19'0 0.0
2018-Mar-21 19:29N 39°27' W 000°19'0 0.0
2018-Mar-21 18:59N 39°27' W 000°19'0 0.0
2018-Mar-21 18:29N 39°27' W 000°19'0 0.0
2018-Mar-21 17:59N 39°27' W 000°19'0 0.0
2018-Mar-21 17:29N 39°27' W 000°19'0 0.0
2018-Mar-21 16:59N 39°27' W 000°19'0 0.0
2018-Mar-21 16:29N 39°27' W 000°19'0 0.0
2018-Mar-21 15:59N 39°27' W 000°19'0 0.0
2018-Mar-21 15:29N 39°27' W 000°19'0 0.0
2018-Mar-21 14:59N 39°27' W 000°19'0 0.0
2018-Mar-21 14:29N 39°27' W 000°19'0 0.0
2018-Mar-21 13:59N 39°27' W 000°19'0 0.0
2018-Mar-21 13:29N 39°27' W 000°19'0 0.0
2018-Mar-21 12:59N 39°27' W 000°19'0 0.0
2018-Mar-21 12:29N 39°27' W 000°19'0 0.0
2018-Mar-21 11:59N 39°27' W 000°19'0 0.0
2018-Mar-21 11:29N 39°27' W 000°19'0 0.0
2018-Mar-21 10:59N 39°27' W 000°19'0 0.0
2018-Mar-21 10:29N 39°27' W 000°19'0 0.0
2018-Mar-21 09:59N 39°27' W 000°19'0 0.0
2018-Mar-21 09:29N 39°27' W 000°19'0 0.0
2018-Mar-21 08:56N 39°27' W 000°19'0 0.0
2018-Mar-21 08:29N 39°27' W 000°19'0 0.0
2018-Mar-21 07:59N 39°27' W 000°19'0 0.0
2018-Mar-21 07:29N 39°27' W 000°19'0 0.0
2018-Mar-21 06:59N 39°27' W 000°19'0 0.0
2018-Mar-21 06:29N 39°27' W 000°19'0 0.0
2018-Mar-21 05:59N 39°27' W 000°19'0 0.0
2018-Mar-21 05:29N 39°27' W 000°19'0 0.0
2018-Mar-21 04:59N 39°27' W 000°19'0 0.0
2018-Mar-21 04:29N 39°27' W 000°19'0 0.0
2018-Mar-21 03:59N 39°27' W 000°19'0 0.0
2018-Mar-21 03:29N 39°27' W 000°19'0 0.0
2018-Mar-21 02:59N 39°27' W 000°19'0 0.0
2018-Mar-21 02:29N 39°27' W 000°19'0 0.0
2018-Mar-21 01:59N 39°27' W 000°19'0 0.0
2018-Mar-21 01:29N 39°27' W 000°19'0 0.0
2018-Mar-21 00:59N 39°27' W 000°19'0 0.0
2018-Mar-21 00:29N 39°27' W 000°19'2 4.6
2018-Mar-21 00:00N 39°25' W 000°17'2 3.2
2018-Mar-20 23:30N 39°25' W 000°15'2 4.1
2018-Mar-20 23:00N 39°25' W 000°13'0 0.1
2018-Mar-20 22:30N 39°25' W 000°13'1 0.5
2018-Mar-20 21:22N 39°25' W 000°12'1 1.5
2018-Mar-20 20:57N 39°25' W 000°13'1 1.5
2018-Mar-20 20:30N 39°25' W 000°14'1 1.6
2018-Mar-20 19:57N 39°25' W 000°15'100 8.1
2018-Mar-20 07:35N 37°45' W 000°21'110.1
2018-Mar-20 07:30N 37°44' W 000°21'510.3
2018-Mar-20 07:00N 37°40' W 000°25'510.5
2018-Mar-20 06:30N 37°36' W 000°28'510.3
2018-Mar-20 06:00N 37°32' W 000°32'510.8
2018-Mar-20 05:30N 37°28' W 000°38'510.3
2018-Mar-20 05:00N 37°25' W 000°43'510.1
2018-Mar-20 04:30N 37°22' W 000°48'610.1
2018-Mar-20 03:58N 37°18' W 000°53'710.5
2018-Mar-20 03:17N 37°13' W 000°59'21910.7
2018-Mar-19 06:53N 35°59' W 005°16'512.6
2018-Mar-19 06:30N 35°58' W 005°22'8 0.5
2018-Mar-18 13:25N 35°55' W 005°31'3 6.0
2018-Mar-18 13:01N 35°58' W 005°30'4 7.9
2018-Mar-18 12:30N 35°60' W 005°26'4 7.4
2018-Mar-18 12:00N 35°60' W 005°21'4 7.4
2018-Mar-18 11:30N 35°60' W 005°17'6 3.0
2018-Mar-18 09:27N 35°57' W 005°09'8 0.3
2018-Mar-17 03:40N 35°50' W 005°04'9 9.1
2018-Mar-17 02:37N 35°56' W 005°13'214.1
2018-Mar-17 02:30N 35°57' W 005°14'714.7
2018-Mar-17 02:01N 35°58' W 005°23'  
Track history (hours):
 
Tides and Currents Weather Stations Pressure Air Temp Water Temp Dewpoint Dewpoint Depression Visibility Wind Speed Wind Dir Waves Ship Positions

Philippe A

Last reported at 2018-Mar-22 11:36 UTC. Time now 2018-Apr-22 18:13 UTC.
Position N 38°59' E 002°42'.
Warning: this ship's position is 31 days out of date.

Length 133 m; draft 8.2 m.

Type: Ship (hazmat cat A). MMSI: 242640300.

Date/timePositionNaut miles runAvg speedWind from/ knotsBaromVisibWave heightAir tempDewpointWater temp
2018-Mar-22 11:36N 38°59' E 002°42'113.2
2018-Mar-22 11:30N 38°59' E 002°40'13612.7
2018-Mar-22 00:50N 39°25' W 000°12'412.6
2018-Mar-22 00:30N 39°25' W 000°17'2 4.2
2018-Mar-21 23:59N 39°27' W 000°19'0 0.0
2018-Mar-21 23:29N 39°27' W 000°19'0 0.0
2018-Mar-21 22:59N 39°27' W 000°19'0 0.0
2018-Mar-21 22:29N 39°27' W 000°19'0 0.0
2018-Mar-21 21:59N 39°27' W 000°19'0 0.0
2018-Mar-21 21:29N 39°27' W 000°19'0 0.0
2018-Mar-21 20:56N 39°27' W 000°19'0 0.0
2018-Mar-21 20:29N 39°27' W 000°19'0 0.0
2018-Mar-21 19:59N 39°27' W 000°19'0 0.0
2018-Mar-21 19:29N 39°27' W 000°19'0 0.0
2018-Mar-21 18:59N 39°27' W 000°19'0 0.0
2018-Mar-21 18:29N 39°27' W 000°19'0 0.0
2018-Mar-21 17:59N 39°27' W 000°19'0 0.0
2018-Mar-21 17:29N 39°27' W 000°19'0 0.0
2018-Mar-21 16:59N 39°27' W 000°19'0 0.0
2018-Mar-21 16:29N 39°27' W 000°19'0 0.0
2018-Mar-21 15:59N 39°27' W 000°19'0 0.0
2018-Mar-21 15:29N 39°27' W 000°19'0 0.0
2018-Mar-21 14:59N 39°27' W 000°19'0 0.0
2018-Mar-21 14:29N 39°27' W 000°19'0 0.0
2018-Mar-21 13:59N 39°27' W 000°19'0 0.0
2018-Mar-21 13:29N 39°27' W 000°19'0 0.0
2018-Mar-21 12:59N 39°27' W 000°19'0 0.0
2018-Mar-21 12:29N 39°27' W 000°19'0 0.0
2018-Mar-21 11:59N 39°27' W 000°19'0 0.0
2018-Mar-21 11:29N 39°27' W 000°19'0 0.0
2018-Mar-21 10:59N 39°27' W 000°19'0 0.0
2018-Mar-21 10:29N 39°27' W 000°19'0 0.0
2018-Mar-21 09:59N 39°27' W 000°19'0 0.0
2018-Mar-21 09:29N 39°27' W 000°19'0 0.0
2018-Mar-21 08:56N 39°27' W 000°19'0 0.0
2018-Mar-21 08:29N 39°27' W 000°19'0 0.0
2018-Mar-21 07:59N 39°27' W 000°19'0 0.0
2018-Mar-21 07:29N 39°27' W 000°19'0 0.0
2018-Mar-21 06:59N 39°27' W 000°19'0 0.0
2018-Mar-21 06:29N 39°27' W 000°19'0 0.0
2018-Mar-21 05:59N 39°27' W 000°19'0 0.0
2018-Mar-21 05:29N 39°27' W 000°19'0 0.0
2018-Mar-21 04:59N 39°27' W 000°19'0 0.0
2018-Mar-21 04:29N 39°27' W 000°19'0 0.0
2018-Mar-21 03:59N 39°27' W 000°19'0 0.0
2018-Mar-21 03:29N 39°27' W 000°19'0 0.0
2018-Mar-21 02:59N 39°27' W 000°19'0 0.0
2018-Mar-21 02:29N 39°27' W 000°19'0 0.0
2018-Mar-21 01:59N 39°27' W 000°19'0 0.0
2018-Mar-21 01:29N 39°27' W 000°19'0 0.0
2018-Mar-21 00:59N 39°27' W 000°19'0 0.0
2018-Mar-21 00:29N 39°27' W 000°19'2 4.6
2018-Mar-21 00:00N 39°25' W 000°17'2 3.2
2018-Mar-20 23:30N 39°25' W 000°15'2 4.1
2018-Mar-20 23:00N 39°25' W 000°13'0 0.1
2018-Mar-20 22:30N 39°25' W 000°13'1 0.5
2018-Mar-20 21:22N 39°25' W 000°12'1 1.5
2018-Mar-20 20:57N 39°25' W 000°13'1 1.5
2018-Mar-20 20:30N 39°25' W 000°14'1 1.6
2018-Mar-20 19:57N 39°25' W 000°15'100 8.1
2018-Mar-20 07:35N 37°45' W 000°21'110.1
2018-Mar-20 07:30N 37°44' W 000°21'510.3
2018-Mar-20 07:00N 37°40' W 000°25'510.5
2018-Mar-20 06:30N 37°36' W 000°28'510.3
2018-Mar-20 06:00N 37°32' W 000°32'510.8
2018-Mar-20 05:30N 37°28' W 000°38'510.3
2018-Mar-20 05:00N 37°25' W 000°43'510.1
2018-Mar-20 04:30N 37°22' W 000°48'610.1
2018-Mar-20 03:58N 37°18' W 000°53'710.5
2018-Mar-20 03:17N 37°13' W 000°59'21910.7
2018-Mar-19 06:53N 35°59' W 005°16'512.6
2018-Mar-19 06:30N 35°58' W 005°22'8 0.5
2018-Mar-18 13:25N 35°55' W 005°31'3 6.0
2018-Mar-18 13:01N 35°58' W 005°30'4 7.9
2018-Mar-18 12:30N 35°60' W 005°26'4 7.4
2018-Mar-18 12:00N 35°60' W 005°21'4 7.4
2018-Mar-18 11:30N 35°60' W 005°17'6 3.0
2018-Mar-18 09:27N 35°57' W 005°09'8 0.3
2018-Mar-17 03:40N 35°50' W 005°04'9 9.1
2018-Mar-17 02:37N 35°56' W 005°13'214.1
2018-Mar-17 02:30N 35°57' W 005°14'714.7
2018-Mar-17 02:01N 35°58' W 005°23'  

Dump ship's entire track history